createdAt,value
2023-03-11T00:00:19.557Z,1.50
2023-03-11T00:02:47.667Z,1.85
2023-03-11T00:05:22.246Z,1.40
2023-03-11T00:07:48.695Z,1.40
2023-03-11T00:10:20.908Z,1.55
2023-03-11T00:12:47.251Z,1.58
2023-03-11T00:15:14.243Z,1.40
2023-03-11T00:17:40.835Z,1.45
2023-03-11T00:20:09.258Z,1.25
2023-03-11T00:22:35.655Z,1.42
2023-03-11T00:25:15.428Z,1.52
2023-03-11T00:28:07.009Z,1.40
2023-03-11T00:30:33.787Z,1.58
2023-03-11T00:33:00.627Z,1.55
2023-03-11T00:35:29.823Z,1.30
2023-03-11T00:37:58.748Z,1.45
2023-03-11T00:40:26.893Z,1.60
2023-03-11T00:42:53.468Z,1.23
2023-03-11T00:45:27.219Z,1.58
2023-03-11T00:47:56.908Z,1.38
2023-03-11T00:53:46.811Z,1.42
2023-03-11T00:56:14.633Z,1.20
2023-03-11T00:58:42.880Z,1.33
2023-03-11T01:01:18.447Z,1.20
2023-03-11T01:03:45.481Z,1.27
2023-03-11T01:06:12.591Z,1.23
2023-03-11T01:08:39.201Z,1.13
2023-03-11T01:11:06.648Z,1.20
2023-03-11T01:13:33.424Z,1.30
2023-03-11T01:16:00.136Z,1.85
2023-03-11T01:18:27.034Z,1.20
2023-03-11T01:20:54.074Z,1.33
2023-03-11T01:23:21.111Z,1.38
2023-03-11T01:25:47.506Z,1.48
2023-03-11T01:28:13.938Z,2.00
2023-03-11T01:30:41.600Z,1.35
2023-03-11T01:33:11.368Z,1.58
2023-03-11T01:35:39.998Z,1.60
2023-03-11T01:38:06.464Z,1.50
2023-03-11T01:40:35.735Z,1.42
2023-03-11T01:43:03.073Z,1.35
2023-03-11T01:45:38.876Z,1.33
2023-03-11T01:48:05.372Z,1.48
2023-03-11T01:50:35.403Z,1.40
2023-03-11T01:53:02.866Z,1.55
2023-03-11T01:55:30.863Z,1.35
2023-03-11T01:57:57.301Z,1.27
2023-03-11T02:00:23.714Z,1.80
2023-03-11T02:02:54.696Z,1.42
2023-03-11T02:05:22.028Z,1.45
2023-03-11T02:07:49.712Z,1.67
2023-03-11T02:10:16.248Z,2.00
2023-03-11T02:12:42.996Z,1.77
2023-03-11T02:15:10.617Z,1.90
2023-03-11T02:17:38.291Z,1.55
2023-03-11T02:20:32.982Z,1.90
2023-03-11T02:23:01.089Z,1.75
2023-03-11T02:25:42.979Z,1.83
2023-03-11T02:28:11.989Z,1.90
2023-03-11T02:30:41.249Z,2.28
2023-03-11T02:33:08.861Z,1.70
2023-03-11T02:35:35.350Z,1.70
2023-03-11T02:38:02.010Z,1.83
2023-03-11T02:40:30.385Z,1.67
2023-03-11T02:42:58.675Z,1.92
2023-03-11T02:45:26.193Z,2.00
2023-03-11T02:47:55.088Z,1.88
2023-03-11T02:50:21.853Z,1.48
2023-03-11T02:52:49.397Z,1.85
2023-03-11T02:55:18.032Z,1.65
2023-03-11T02:57:47.785Z,1.67
2023-03-11T03:00:16.695Z,2.00
2023-03-11T03:02:44.789Z,1.88
2023-03-11T03:05:12.287Z,1.92
2023-03-11T03:07:38.744Z,1.80
2023-03-11T03:10:06.429Z,1.45
2023-03-11T03:12:32.805Z,1.40
2023-03-11T03:14:59.149Z,1.50
2023-03-11T03:17:25.610Z,2.25
2023-03-11T03:19:51.995Z,1.52
2023-03-11T03:22:18.661Z,1.80
2023-03-11T03:24:45.035Z,1.90
2023-03-11T03:27:11.389Z,1.60
2023-03-11T03:29:46.638Z,1.77
2023-03-11T03:32:14.733Z,1.75
2023-03-11T03:34:41.107Z,1.63
2023-03-11T03:37:07.498Z,1.95
2023-03-11T03:39:34.016Z,1.85
2023-03-11T03:42:00.388Z,1.63
2023-03-11T03:44:26.745Z,1.67
2023-03-11T03:46:53.082Z,1.90
2023-03-11T03:49:19.428Z,1.70
2023-03-11T03:51:45.806Z,1.83
2023-03-11T03:54:12.167Z,1.98
2023-03-11T03:56:39.001Z,2.10
2023-03-11T03:59:05.394Z,2.00
2023-03-11T04:01:31.726Z,1.63
2023-03-11T04:03:58.154Z,2.47
2023-03-11T04:06:25.959Z,1.85
2023-03-11T04:08:52.894Z,2.22
2023-03-11T04:11:19.246Z,2.10
2023-03-11T04:13:45.789Z,2.00
2023-03-11T04:16:30.735Z,2.13
2023-03-11T04:18:57.188Z,2.08
2023-03-11T04:21:24.068Z,1.90
2023-03-11T04:23:50.416Z,2.30
2023-03-11T04:26:16.812Z,2.00
2023-03-11T04:28:43.148Z,2.15
2023-03-11T04:31:09.554Z,2.40
2023-03-11T04:33:35.946Z,2.47
2023-03-11T04:36:06.710Z,2.72
2023-03-11T04:38:33.090Z,1.98
2023-03-11T04:41:06.784Z,2.50
2023-03-11T04:43:33.784Z,2.38
2023-03-11T04:46:00.218Z,1.95
2023-03-11T04:48:27.480Z,2.40
2023-03-11T04:50:55.448Z,1.98
2023-03-11T04:53:22.098Z,2.72
2023-03-11T04:55:48.435Z,2.33
2023-03-11T04:58:14.777Z,2.38
2023-03-11T05:00:41.238Z,2.35
2023-03-11T05:03:07.637Z,2.67
2023-03-11T05:05:34.064Z,2.50
2023-03-11T05:08:00.425Z,2.38
2023-03-11T05:10:26.747Z,2.25
2023-03-11T05:12:53.117Z,2.90
2023-03-11T05:15:19.979Z,2.50
2023-03-11T05:17:46.451Z,2.63
2023-03-11T05:20:15.544Z,2.72
2023-03-11T05:22:42.149Z,2.50
2023-03-11T05:25:08.961Z,2.08
2023-03-11T05:27:35.281Z,2.10
2023-03-11T05:30:01.707Z,2.28
2023-03-11T05:32:28.095Z,2.53
2023-03-11T05:34:54.474Z,2.40
2023-03-11T05:37:20.821Z,2.63
2023-03-11T05:39:47.260Z,2.20
2023-03-11T05:42:13.678Z,2.83
2023-03-11T05:44:41.346Z,2.20
2023-03-11T05:47:07.694Z,2.15
2023-03-11T05:49:34.094Z,2.72
2023-03-11T05:52:00.637Z,2.28
2023-03-11T05:54:27.070Z,2.47
2023-03-11T05:56:53.389Z,2.10
2023-03-11T05:59:19.853Z,2.30
2023-03-11T06:01:46.226Z,2.67
2023-03-11T06:04:12.835Z,2.75
2023-03-11T06:06:42.914Z,2.55
2023-03-11T06:09:15.541Z,2.83
2023-03-11T06:11:42.254Z,2.45
2023-03-11T06:14:11.445Z,2.17
2023-03-11T06:16:37.897Z,3.70
2023-03-11T06:19:04.350Z,2.78
2023-03-11T06:21:31.085Z,3.30
2023-03-11T06:23:57.476Z,3.50
2023-03-11T06:26:24.246Z,2.88
2023-03-11T06:28:52.138Z,3.28
2023-03-11T06:31:37.115Z,3.00
2023-03-11T06:34:04.009Z,2.33
2023-03-11T06:36:30.684Z,2.28
2023-03-11T06:38:57.033Z,2.72
2023-03-11T06:41:23.474Z,2.85
2023-03-11T06:43:49.838Z,3.25
2023-03-11T06:46:19.387Z,2.60
2023-03-11T06:48:46.385Z,3.38
2023-03-11T06:51:13.689Z,2.60
2023-03-11T06:53:40.231Z,2.58
2023-03-11T06:56:12.036Z,3.45
2023-03-11T06:58:40.702Z,2.60
2023-03-11T07:01:13.224Z,2.60
2023-03-11T07:03:40.106Z,2.58
2023-03-11T07:06:07.222Z,2.28
2023-03-11T07:08:33.628Z,2.42
2023-03-11T07:11:08.340Z,2.13
2023-03-11T07:13:35.569Z,2.53
2023-03-11T07:16:15.635Z,2.35
2023-03-11T07:18:43.498Z,2.63
2023-03-11T07:21:12.655Z,2.38
2023-03-11T07:23:39.118Z,2.40
2023-03-11T07:26:08.738Z,3.22
2023-03-11T07:28:35.144Z,2.50
2023-03-11T07:31:09.783Z,2.63
2023-03-11T07:33:37.810Z,2.58
2023-03-11T07:36:23.770Z,2.70
2023-03-11T07:39:04.331Z,2.38
2023-03-11T07:41:32.947Z,2.65
2023-03-11T07:44:00.232Z,2.97
2023-03-11T07:46:28.279Z,2.38
2023-03-11T07:48:55.156Z,2.70
2023-03-11T07:51:27.267Z,2.78
2023-03-11T07:53:55.232Z,2.60
2023-03-11T07:56:23.982Z,2.95
2023-03-11T07:58:50.947Z,2.85
2023-03-11T08:01:22.196Z,2.75
2023-03-11T08:03:51.031Z,2.83
2023-03-11T08:06:23.548Z,2.58
2023-03-11T08:08:50.086Z,2.63
2023-03-11T08:11:16.882Z,2.70
2023-03-11T08:13:44.539Z,2.65
2023-03-11T08:16:14.433Z,2.65
2023-03-11T08:18:40.881Z,2.72
2023-03-11T08:21:09.190Z,2.25
2023-03-11T08:23:35.995Z,2.50
2023-03-11T08:26:10.158Z,2.13
2023-03-11T08:28:37.467Z,2.45
2023-03-11T08:31:12.334Z,2.60
2023-03-11T08:33:38.725Z,1.90
2023-03-11T08:36:05.489Z,2.45
2023-03-11T08:38:31.858Z,2.45
2023-03-11T08:40:58.219Z,1.95
2023-03-11T08:43:24.586Z,2.33
2023-03-11T08:45:51.067Z,2.63
2023-03-11T08:48:17.445Z,2.50
2023-03-11T08:50:53.844Z,2.33
2023-03-11T08:53:21.445Z,2.58
2023-03-11T08:55:47.783Z,2.25
2023-03-11T08:58:14.128Z,2.45
2023-03-11T09:00:40.517Z,2.50
2023-03-11T09:03:06.930Z,2.20
2023-03-11T09:05:33.317Z,2.30
2023-03-11T09:07:59.749Z,2.25
2023-03-11T09:10:26.148Z,2.20
2023-03-11T09:12:54.000Z,1.90
2023-03-11T09:15:20.561Z,2.08
2023-03-11T09:17:46.946Z,2.15
2023-03-11T09:20:14.395Z,2.15
2023-03-11T09:22:40.951Z,1.83
2023-03-11T09:25:08.147Z,2.08
2023-03-11T09:27:34.632Z,1.60
2023-03-11T09:30:01.225Z,1.38
2023-03-11T09:32:27.682Z,1.77
2023-03-11T09:34:54.089Z,1.38
2023-03-11T09:37:20.455Z,1.83
2023-03-11T09:39:46.794Z,1.80
2023-03-11T09:42:19.884Z,1.70
2023-03-11T09:45:08.352Z,1.33
2023-03-11T09:47:39.130Z,1.83
2023-03-11T09:50:21.332Z,1.45
2023-03-11T09:52:56.505Z,1.55
2023-03-11T09:55:37.243Z,1.60
2023-03-11T09:58:16.778Z,1.58
2023-03-11T10:00:43.383Z,1.70
2023-03-11T10:03:21.967Z,1.58
2023-03-11T10:05:48.498Z,1.55
2023-03-11T10:08:23.950Z,1.40
2023-03-11T10:11:04.543Z,1.40
2023-03-11T10:13:39.040Z,1.63
2023-03-11T10:16:19.933Z,1.30
2023-03-11T10:19:22.738Z,1.23
2023-03-11T10:22:07.183Z,0.90
2023-03-11T10:24:45.879Z,1.15
2023-03-11T10:27:27.265Z,1.20
2023-03-11T10:30:03.670Z,1.48
2023-03-11T10:32:38.084Z,1.30
2023-03-11T10:35:15.690Z,1.20
2023-03-11T10:37:49.672Z,1.50
2023-03-11T10:40:31.836Z,1.55
2023-03-11T10:43:00.940Z,1.70
2023-03-11T10:45:38.241Z,1.70
2023-03-11T10:48:15.112Z,2.00
2023-03-11T10:50:52.600Z,1.63
2023-03-11T10:53:20.019Z,1.60
2023-03-11T10:55:49.076Z,1.40
2023-03-11T10:58:18.793Z,1.23
2023-03-11T11:00:45.357Z,1.30
2023-03-11T11:03:23.474Z,1.40
2023-03-11T11:06:03.277Z,1.50
2023-03-11T11:08:30.377Z,1.50
2023-03-11T11:11:00.036Z,1.60
2023-03-11T11:13:30.173Z,1.35
2023-03-11T11:16:20.715Z,1.20
2023-03-11T11:18:49.417Z,1.38
2023-03-11T11:21:26.751Z,1.02
2023-03-11T11:24:07.243Z,1.30
2023-03-11T11:26:33.616Z,1.48
2023-03-11T11:29:09.002Z,1.38
2023-03-11T11:31:37.227Z,1.27
2023-03-11T11:34:03.750Z,1.42
2023-03-11T11:36:32.859Z,1.50
2023-03-11T11:38:59.948Z,1.75
2023-03-11T11:41:27.133Z,1.27
2023-03-11T11:43:55.309Z,1.58
2023-03-11T11:46:34.006Z,1.40
2023-03-11T11:49:19.513Z,1.60
2023-03-11T11:51:51.229Z,1.50
2023-03-11T11:54:29.607Z,1.23
2023-03-11T11:56:56.592Z,1.42
2023-03-11T11:59:23.313Z,1.50
2023-03-11T12:02:00.012Z,1.50
2023-03-11T12:04:43.325Z,1.60
2023-03-11T12:07:14.842Z,1.40
2023-03-11T12:10:12.805Z,1.23
2023-03-11T12:12:52.727Z,1.38
2023-03-11T12:15:24.490Z,1.15
2023-03-11T12:17:52.705Z,1.52
2023-03-11T12:20:46.840Z,1.35
2023-03-11T12:23:30.153Z,1.10
2023-03-11T12:26:20.518Z,1.50
2023-03-11T12:28:55.100Z,1.48
2023-03-11T12:31:24.343Z,1.48
2023-03-11T12:33:56.882Z,1.30
2023-03-11T12:36:32.158Z,1.60
2023-03-11T12:39:00.357Z,1.80
2023-03-11T12:41:45.042Z,1.23
2023-03-11T12:44:23.413Z,1.33
2023-03-11T12:46:59.136Z,1.50
2023-03-11T12:49:36.893Z,1.52
2023-03-11T12:52:09.025Z,1.55
2023-03-11T12:54:37.201Z,1.58
2023-03-11T12:57:23.806Z,1.75
2023-03-11T13:00:30.469Z,1.20
2023-03-11T13:03:27.373Z,1.60
2023-03-11T13:06:12.649Z,1.33
2023-03-11T13:08:48.429Z,1.52
2023-03-11T13:11:32.704Z,1.60
2023-03-11T13:16:41.486Z,1.33
2023-03-11T13:19:26.413Z,1.20
2023-03-11T13:21:59.637Z,1.27
2023-03-11T13:24:26.081Z,1.40
2023-03-11T13:26:58.234Z,1.60
2023-03-11T13:29:35.765Z,1.40
2023-03-11T13:32:54.184Z,1.23
2023-03-11T13:35:38.543Z,1.80
2023-03-11T13:40:52.469Z,1.25
2023-03-11T13:43:23.789Z,1.50
2023-03-11T13:46:13.460Z,1.38
2023-03-11T13:48:45.149Z,1.70
2023-03-11T13:51:18.060Z,1.20
2023-03-11T13:53:47.981Z,1.40
2023-03-11T13:56:19.016Z,1.42
2023-03-11T13:58:45.387Z,1.52
2023-03-11T14:01:16.006Z,1.20
2023-03-11T14:03:44.162Z,1.73
2023-03-11T14:06:18.769Z,1.77
2023-03-11T14:08:55.626Z,1.80
2023-03-11T14:11:29.156Z,1.63
2023-03-11T14:13:55.545Z,1.80
2023-03-11T14:16:33.557Z,1.55
2023-03-11T14:19:04.516Z,1.65
2023-03-11T14:21:31.769Z,1.63
2023-03-11T14:23:58.153Z,1.42
2023-03-11T14:26:29.016Z,1.33
2023-03-11T14:28:58.823Z,1.42
2023-03-11T14:31:36.385Z,1.35
2023-03-11T14:34:15.861Z,1.58
2023-03-11T14:36:50.880Z,1.38
2023-03-11T14:39:37.469Z,1.15
2023-03-11T14:42:18.692Z,1.33
2023-03-11T14:44:57.798Z,0.88
2023-03-11T14:47:39.418Z,1.48
2023-03-11T14:50:10.290Z,1.80
2023-03-11T14:52:47.133Z,1.58
2023-03-11T14:55:20.309Z,1.30
2023-03-11T14:57:54.918Z,1.30
2023-03-11T15:00:50.710Z,1.30
2023-03-11T15:03:28.903Z,1.50
2023-03-11T15:05:57.378Z,1.48
2023-03-11T15:08:27.359Z,1.40
2023-03-11T15:11:07.131Z,1.52
2023-03-11T15:13:33.981Z,1.40
2023-03-11T15:16:02.662Z,1.35
2023-03-11T15:18:32.476Z,1.50
2023-03-11T15:21:13.884Z,1.33
2023-03-11T15:23:45.394Z,1.17
2023-03-11T15:26:28.970Z,1.52
2023-03-11T15:29:23.398Z,1.30
2023-03-11T15:31:49.960Z,1.13
2023-03-11T15:34:16.224Z,1.40
2023-03-11T15:36:56.645Z,1.30
2023-03-11T15:39:31.813Z,1.45
2023-03-11T15:42:13.469Z,1.40
2023-03-11T15:44:48.671Z,1.48
2023-03-11T15:47:22.791Z,1.52
2023-03-11T15:52:16.862Z,1.65
2023-03-11T15:54:49.472Z,1.48
2023-03-11T15:57:24.175Z,1.55
2023-03-11T15:59:51.333Z,1.50
2023-03-11T16:02:22.593Z,1.30
2023-03-11T16:04:49.060Z,1.52
2023-03-11T16:07:17.112Z,1.67
2023-03-11T16:09:43.565Z,1.30
2023-03-11T16:12:30.173Z,1.30
2023-03-11T16:14:56.538Z,1.40
2023-03-11T16:17:23.401Z,1.17
2023-03-11T16:19:49.853Z,1.50
2023-03-11T16:22:18.801Z,1.25
2023-03-11T16:24:48.766Z,1.20
2023-03-11T16:27:17.763Z,1.40
2023-03-11T16:29:45.347Z,1.38
2023-03-11T16:32:11.954Z,1.50
2023-03-11T16:34:39.325Z,1.10
2023-03-11T16:37:06.662Z,1.27
2023-03-11T16:39:33.449Z,1.42
2023-03-11T16:42:00.222Z,1.20
2023-03-11T16:44:26.970Z,1.58
2023-03-11T16:46:53.467Z,1.67
2023-03-11T16:49:19.853Z,1.38
2023-03-11T16:51:46.292Z,1.42
2023-03-11T16:54:12.630Z,1.10
2023-03-11T16:56:41.736Z,1.30
2023-03-11T16:59:08.429Z,1.17
2023-03-11T17:01:38.381Z,1.27
2023-03-11T17:04:08.351Z,1.58
2023-03-11T17:06:34.835Z,1.60
2023-03-11T17:09:01.233Z,1.77
2023-03-11T17:11:29.473Z,1.20
2023-03-11T17:14:03.301Z,1.67
2023-03-11T17:19:06.457Z,1.50
2023-03-11T17:21:32.802Z,1.60
2023-03-11T17:23:59.135Z,1.70
2023-03-11T17:26:26.563Z,1.60
2023-03-11T17:28:53.203Z,2.08
2023-03-11T17:31:19.591Z,1.70
2023-03-11T17:33:46.065Z,1.77
2023-03-11T17:36:15.902Z,1.63
2023-03-11T17:38:46.219Z,1.70
2023-03-11T17:41:15.205Z,1.88
2023-03-11T17:43:42.296Z,1.48
2023-03-11T17:46:11.290Z,1.65
2023-03-11T17:48:38.116Z,1.55
2023-03-11T17:51:06.329Z,1.65
2023-03-11T17:53:33.223Z,1.35
2023-03-11T17:55:59.589Z,1.23
2023-03-11T17:58:25.893Z,1.15
2023-03-11T18:00:52.210Z,1.40
2023-03-11T18:03:18.528Z,1.30
2023-03-11T18:05:56.827Z,1.45
2023-03-11T18:08:23.165Z,1.77
2023-03-11T18:10:54.726Z,1.40
2023-03-11T18:13:21.439Z,1.10
2023-03-11T18:16:09.716Z,1.30
2023-03-11T18:18:36.744Z,1.20
2023-03-11T18:21:05.536Z,1.38
2023-03-11T18:23:35.249Z,1.27
2023-03-11T18:26:02.918Z,1.48
2023-03-11T18:28:29.295Z,1.55
2023-03-11T18:30:55.664Z,1.40
2023-03-11T18:33:23.622Z,1.45
2023-03-11T18:35:50.218Z,1.67
2023-03-11T18:38:16.575Z,2.00
2023-03-11T18:40:42.916Z,2.25
2023-03-11T18:43:12.440Z,1.83
2023-03-11T18:45:39.234Z,1.88
2023-03-11T18:48:05.868Z,1.88
2023-03-11T18:50:32.252Z,1.42
2023-03-11T18:52:58.736Z,1.48
2023-03-11T18:55:25.358Z,1.63
2023-03-11T18:57:53.032Z,1.55
2023-03-11T19:00:23.367Z,1.30
2023-03-11T19:02:51.439Z,1.25
2023-03-11T19:05:17.925Z,1.75
2023-03-11T19:07:44.312Z,1.58
2023-03-11T19:10:12.175Z,4.00
2023-03-11T19:12:39.879Z,2.10
2023-03-11T19:15:07.049Z,1.98
2023-03-11T19:17:33.507Z,2.35
2023-03-11T19:19:59.931Z,1.90
2023-03-11T19:22:26.250Z,2.08
2023-03-11T19:24:55.628Z,1.83
2023-03-11T19:27:22.016Z,1.60
2023-03-11T19:29:48.391Z,1.80
2023-03-11T19:32:14.814Z,1.70
2023-03-11T19:34:41.220Z,1.65
2023-03-11T19:37:07.558Z,1.98
2023-03-11T19:39:33.877Z,1.83
2023-03-11T19:42:00.426Z,2.20
2023-03-11T19:44:26.765Z,2.22
2023-03-11T19:46:53.087Z,2.28
2023-03-11T19:49:19.459Z,2.67
2023-03-11T19:51:50.471Z,2.67
2023-03-11T19:54:17.400Z,2.17
2023-03-11T19:56:43.964Z,2.40
2023-03-11T19:59:10.456Z,2.70
2023-03-11T20:01:36.863Z,2.15
2023-03-11T20:04:04.137Z,2.15
2023-03-11T20:06:30.708Z,2.20
2023-03-11T20:08:57.150Z,1.98
2023-03-11T20:11:23.523Z,2.10
2023-03-11T20:13:50.082Z,2.20
2023-03-11T20:17:31.990Z,2.20
2023-03-11T20:19:04.739Z,2.15
2023-03-11T20:21:31.110Z,2.70
2023-03-11T20:23:57.972Z,2.33
2023-03-11T20:26:24.872Z,2.45
2023-03-11T20:28:55.130Z,2.35
2023-03-11T20:31:23.823Z,3.00
2023-03-11T20:33:51.195Z,3.10
2023-03-11T20:36:21.060Z,3.60
2023-03-11T20:38:51.919Z,3.63
2023-03-11T20:41:18.740Z,3.53
2023-03-11T20:43:45.468Z,3.08
2023-03-11T20:46:12.618Z,3.33
2023-03-11T20:48:39.465Z,3.13
2023-03-11T20:51:14.390Z,3.13
2023-03-11T20:53:40.852Z,2.60
2023-03-11T20:56:15.550Z,2.60
2023-03-11T20:58:42.549Z,2.25
2023-03-11T21:01:13.727Z,2.85
2023-03-11T21:03:40.311Z,3.28
2023-03-11T21:06:14.476Z,2.17
2023-03-11T21:08:40.917Z,2.72
2023-03-11T21:11:07.374Z,2.83
2023-03-11T21:13:35.916Z,3.25
2023-03-11T21:16:04.191Z,2.80
2023-03-11T21:18:30.624Z,2.60
2023-03-11T21:20:57.254Z,2.72
2023-03-11T21:23:23.640Z,2.88
2023-03-11T21:25:58.973Z,2.95
2023-03-11T21:28:25.414Z,2.60
2023-03-11T21:31:05.228Z,2.90
2023-03-11T21:33:32.206Z,2.78
2023-03-11T21:36:00.723Z,3.30
2023-03-11T21:38:27.808Z,3.47
2023-03-11T21:41:07.616Z,3.55
2023-03-11T21:43:34.281Z,3.90
2023-03-11T21:46:00.885Z,3.95
2023-03-11T21:48:27.585Z,3.30
2023-03-11T21:50:54.047Z,3.60
2023-03-11T21:53:20.693Z,3.60
2023-03-11T21:55:47.420Z,3.17
2023-03-11T21:58:14.828Z,3.42
2023-03-11T22:00:41.378Z,3.42
2023-03-11T22:03:07.814Z,4.43
2023-03-11T22:05:34.286Z,4.88
2023-03-11T22:08:00.818Z,4.43
2023-03-11T22:10:27.322Z,4.13
2023-03-11T22:12:53.773Z,4.57
2023-03-11T22:15:20.179Z,4.10
2023-03-11T22:17:46.651Z,3.88
2023-03-11T22:20:13.499Z,3.40
2023-03-11T22:22:39.961Z,4.45
2023-03-11T22:25:06.862Z,3.10
2023-03-11T22:27:33.381Z,3.15
2023-03-11T22:30:00.080Z,3.67
2023-03-11T22:32:28.138Z,3.65
2023-03-11T22:34:54.610Z,3.25
2023-03-11T22:37:21.156Z,3.40
2023-03-11T22:39:47.607Z,3.35
2023-03-11T22:42:16.096Z,3.42
2023-03-11T22:44:42.547Z,3.10
2023-03-11T22:47:09.078Z,3.53
2023-03-11T22:49:35.656Z,3.53
2023-03-11T22:52:02.130Z,2.90
2023-03-11T22:54:29.072Z,3.20
2023-03-11T22:56:55.616Z,3.53
2023-03-11T22:59:22.114Z,3.97
2023-03-11T23:01:48.616Z,3.53
2023-03-11T23:04:15.234Z,4.10
2023-03-11T23:06:41.725Z,3.80
2023-03-11T23:09:08.165Z,3.53
2023-03-11T23:11:34.705Z,3.33
2023-03-11T23:14:01.149Z,3.20
2023-03-11T23:16:27.803Z,3.70
2023-03-11T23:18:55.288Z,3.60
2023-03-11T23:21:27.325Z,3.63
2023-03-11T23:23:55.760Z,4.35
2023-03-11T23:26:23.216Z,4.13
2023-03-11T23:28:51.189Z,5.55
2023-03-11T23:31:18.531Z,4.40
2023-03-11T23:33:45.649Z,5.82
2023-03-11T23:36:14.833Z,4.90
2023-03-11T23:38:41.661Z,4.88
2023-03-11T23:41:10.174Z,5.15
2023-03-11T23:43:36.618Z,4.45
2023-03-11T23:46:03.526Z,4.60
2023-03-11T23:48:30.082Z,4.32
2023-03-11T23:50:57.886Z,3.78
2023-03-11T23:53:25.823Z,4.22
2023-03-11T23:55:52.477Z,3.92
2023-03-11T23:58:19.556Z,4.13
